sensor_id;sensor_type;location;lat;lon;timestamp;P1;durP1;ratioP1;P2;durP2;ratioP2
40122;SDS011;25832;45.490;4.912;2023-06-22T00:01:05;15.30;;;7.72;;
40122;SDS011;25832;45.490;4.912;2023-06-22T00:03:31;18.00;;;7.40;;
40122;SDS011;25832;45.490;4.912;2023-06-22T00:05:56;17.15;;;7.57;;
40122;SDS011;25832;45.490;4.912;2023-06-22T00:08:22;14.30;;;7.07;;
40122;SDS011;25832;45.490;4.912;2023-06-22T00:10:48;13.55;;;6.63;;
40122;SDS011;25832;45.490;4.912;2023-06-22T00:13:14;15.38;;;7.70;;
40122;SDS011;25832;45.490;4.912;2023-06-22T00:15:41;15.73;;;7.88;;
40122;SDS011;25832;45.490;4.912;2023-06-22T00:18:07;22.83;;;8.07;;
40122;SDS011;25832;45.490;4.912;2023-06-22T00:20:34;28.20;;;9.88;;
40122;SDS011;25832;45.490;4.912;2023-06-22T00:23:02;21.83;;;7.72;;
40122;SDS011;25832;45.490;4.912;2023-06-22T00:25:38;24.60;;;9.15;;
40122;SDS011;25832;45.490;4.912;2023-06-22T00:28:06;21.95;;;7.72;;
40122;SDS011;25832;45.490;4.912;2023-06-22T00:30:33;32.30;;;9.50;;
40122;SDS011;25832;45.490;4.912;2023-06-22T00:32:59;25.45;;;8.13;;
40122;SDS011;25832;45.490;4.912;2023-06-22T00:35:25;24.23;;;8.85;;
40122;SDS011;25832;45.490;4.912;2023-06-22T00:37:54;21.75;;;9.50;;
40122;SDS011;25832;45.490;4.912;2023-06-22T00:40:30;17.80;;;7.95;;
40122;SDS011;25832;45.490;4.912;2023-06-22T00:42:57;21.65;;;8.18;;
40122;SDS011;25832;45.490;4.912;2023-06-22T00:45:23;20.83;;;7.95;;
40122;SDS011;25832;45.490;4.912;2023-06-22T00:47:52;18.35;;;8.82;;
40122;SDS011;25832;45.490;4.912;2023-06-22T00:50:22;18.90;;;7.82;;
40122;SDS011;25832;45.490;4.912;2023-06-22T00:52:52;18.10;;;7.78;;
40122;SDS011;25832;45.490;4.912;2023-06-22T00:55:23;20.92;;;8.57;;
40122;SDS011;25832;45.490;4.912;2023-06-22T00:57:51;13.82;;;6.65;;
40122;SDS011;25832;45.490;4.912;2023-06-22T01:00:21;12.38;;;6.38;;
40122;SDS011;25832;45.490;4.912;2023-06-22T01:02:49;13.88;;;7.22;;
40122;SDS011;25832;45.490;4.912;2023-06-22T01:05:17;16.00;;;7.68;;
40122;SDS011;25832;45.490;4.912;2023-06-22T01:12:56;17.63;;;8.05;;
40122;SDS011;25832;45.490;4.912;2023-06-22T01:17:56;19.63;;;7.38;;
40122;SDS011;25832;45.490;4.912;2023-06-22T01:20:23;18.63;;;7.97;;
40122;SDS011;25832;45.490;4.912;2023-06-22T01:23:11;26.85;;;8.55;;
40122;SDS011;25832;45.490;4.912;2023-06-22T01:28:43;24.25;;;8.02;;
40122;SDS011;25832;45.490;4.912;2023-06-22T01:31:16;19.65;;;10.27;;
40122;SDS011;25832;45.490;4.912;2023-06-22T01:33:45;23.75;;;11.75;;
40122;SDS011;25832;45.490;4.912;2023-06-22T01:36:14;26.27;;;12.55;;
40122;SDS011;25832;45.490;4.912;2023-06-22T01:38:41;24.38;;;13.38;;
40122;SDS011;25832;45.490;4.912;2023-06-22T01:41:08;20.00;;;11.95;;
40122;SDS011;25832;45.490;4.912;2023-06-22T01:43:34;24.27;;;12.23;;
40122;SDS011;25832;45.490;4.912;2023-06-22T01:46:02;27.77;;;12.32;;
40122;SDS011;25832;45.490;4.912;2023-06-22T01:48:29;25.33;;;11.77;;
40122;SDS011;25832;45.490;4.912;2023-06-22T01:50:56;23.70;;;11.98;;
40122;SDS011;25832;45.490;4.912;2023-06-22T01:53:22;18.00;;;10.48;;
40122;SDS011;25832;45.490;4.912;2023-06-22T01:55:48;28.83;;;12.27;;
40122;SDS011;25832;45.490;4.912;2023-06-22T01:58:14;28.48;;;10.90;;
40122;SDS011;25832;45.490;4.912;2023-06-22T02:00:41;24.83;;;10.85;;
40122;SDS011;25832;45.490;4.912;2023-06-22T02:03:17;20.98;;;11.70;;
40122;SDS011;25832;45.490;4.912;2023-06-22T02:05:50;20.98;;;11.43;;
40122;SDS011;25832;45.490;4.912;2023-06-22T02:08:25;21.80;;;10.48;;
40122;SDS011;25832;45.490;4.912;2023-06-22T02:10:55;25.90;;;11.65;;
40122;SDS011;25832;45.490;4.912;2023-06-22T02:13:24;25.15;;;11.10;;
40122;SDS011;25832;45.490;4.912;2023-06-22T02:15:50;16.55;;;9.75;;
40122;SDS011;25832;45.490;4.912;2023-06-22T02:18:16;18.80;;;9.93;;
40122;SDS011;25832;45.490;4.912;2023-06-22T02:20:42;19.00;;;9.68;;
40122;SDS011;25832;45.490;4.912;2023-06-22T02:23:07;24.75;;;11.48;;
40122;SDS011;25832;45.490;4.912;2023-06-22T02:25:33;19.42;;;11.05;;
40122;SDS011;25832;45.490;4.912;2023-06-22T02:27:59;27.90;;;10.75;;
40122;SDS011;25832;45.490;4.912;2023-06-22T02:30:25;21.23;;;10.25;;
40122;SDS011;25832;45.490;4.912;2023-06-22T02:32:51;17.02;;;9.63;;
40122;SDS011;25832;45.490;4.912;2023-06-22T02:35:23;25.13;;;11.73;;
40122;SDS011;25832;45.490;4.912;2023-06-22T02:38:01;26.55;;;11.75;;
40122;SDS011;25832;45.490;4.912;2023-06-22T02:40:28;31.45;;;11.43;;
40122;SDS011;25832;45.490;4.912;2023-06-22T02:42:55;28.42;;;10.85;;
40122;SDS011;25832;45.490;4.912;2023-06-22T02:45:23;32.00;;;12.63;;
40122;SDS011;25832;45.490;4.912;2023-06-22T02:47:48;26.67;;;12.15;;
40122;SDS011;25832;45.490;4.912;2023-06-22T02:50:14;33.92;;;13.48;;
40122;SDS011;25832;45.490;4.912;2023-06-22T02:52:40;26.88;;;12.48;;
40122;SDS011;25832;45.490;4.912;2023-06-22T02:55:06;22.38;;;11.60;;
40122;SDS011;25832;45.490;4.912;2023-06-22T02:57:35;32.63;;;11.98;;
40122;SDS011;25832;45.490;4.912;2023-06-22T03:00:02;35.70;;;13.15;;
40122;SDS011;25832;45.490;4.912;2023-06-22T03:02:41;34.65;;;13.70;;
40122;SDS011;25832;45.490;4.912;2023-06-22T03:05:08;23.98;;;11.90;;
40122;SDS011;25832;45.490;4.912;2023-06-22T03:07:38;48.90;;;13.75;;
40122;SDS011;25832;45.490;4.912;2023-06-22T03:10:08;27.08;;;11.40;;
40122;SDS011;25832;45.490;4.912;2023-06-22T03:12:38;23.02;;;11.80;;
40122;SDS011;25832;45.490;4.912;2023-06-22T03:15:11;21.80;;;11.52;;
40122;SDS011;25832;45.490;4.912;2023-06-22T03:17:38;21.85;;;12.45;;
40122;SDS011;25832;45.490;4.912;2023-06-22T03:20:05;23.45;;;11.48;;
40122;SDS011;25832;45.490;4.912;2023-06-22T03:22:38;25.55;;;12.27;;
40122;SDS011;25832;45.490;4.912;2023-06-22T03:25:04;21.55;;;10.07;;
40122;SDS011;25832;45.490;4.912;2023-06-22T03:27:41;15.60;;;9.25;;
40122;SDS011;25832;45.490;4.912;2023-06-22T03:30:09;25.85;;;11.18;;
40122;SDS011;25832;45.490;4.912;2023-06-22T03:32:36;27.05;;;11.68;;
40122;SDS011;25832;45.490;4.912;2023-06-22T03:35:02;19.02;;;10.60;;
40122;SDS011;25832;45.490;4.912;2023-06-22T03:37:28;33.85;;;12.95;;
40122;SDS011;25832;45.490;4.912;2023-06-22T03:39:54;18.88;;;10.48;;
40122;SDS011;25832;45.490;4.912;2023-06-22T03:42:20;22.92;;;10.43;;
40122;SDS011;25832;45.490;4.912;2023-06-22T03:44:46;20.27;;;9.77;;
40122;SDS011;25832;45.490;4.912;2023-06-22T03:47:12;23.65;;;10.00;;
40122;SDS011;25832;45.490;4.912;2023-06-22T03:49:38;18.35;;;10.07;;
40122;SDS011;25832;45.490;4.912;2023-06-22T03:52:03;26.13;;;11.45;;
40122;SDS011;25832;45.490;4.912;2023-06-22T03:54:30;31.10;;;11.27;;
40122;SDS011;25832;45.490;4.912;2023-06-22T03:56:56;21.80;;;9.77;;
40122;SDS011;25832;45.490;4.912;2023-06-22T03:59:23;21.13;;;9.43;;
40122;SDS011;25832;45.490;4.912;2023-06-22T04:01:50;22.20;;;10.15;;
40122;SDS011;25832;45.490;4.912;2023-06-22T04:04:17;21.73;;;11.68;;
40122;SDS011;25832;45.490;4.912;2023-06-22T04:06:43;18.92;;;9.88;;
40122;SDS011;25832;45.490;4.912;2023-06-22T04:09:08;19.63;;;9.63;;
40122;SDS011;25832;45.490;4.912;2023-06-22T04:11:34;25.55;;;10.02;;
40122;SDS011;25832;45.490;4.912;2023-06-22T04:14:00;16.48;;;8.95;;
40122;SDS011;25832;45.490;4.912;2023-06-22T04:16:25;22.98;;;10.82;;
40122;SDS011;25832;45.490;4.912;2023-06-22T04:18:51;22.83;;;11.43;;
40122;SDS011;25832;45.490;4.912;2023-06-22T04:21:17;19.95;;;9.60;;
40122;SDS011;25832;45.490;4.912;2023-06-22T04:23:44;20.70;;;9.60;;
40122;SDS011;25832;45.490;4.912;2023-06-22T04:26:11;19.35;;;10.48;;
40122;SDS011;25832;45.490;4.912;2023-06-22T04:28:37;18.75;;;10.00;;
40122;SDS011;25832;45.490;4.912;2023-06-22T04:31:03;22.20;;;10.32;;
40122;SDS011;25832;45.490;4.912;2023-06-22T04:33:29;22.42;;;10.60;;
40122;SDS011;25832;45.490;4.912;2023-06-22T04:35:55;21.80;;;11.00;;
40122;SDS011;25832;45.490;4.912;2023-06-22T04:38:22;20.30;;;9.98;;
40122;SDS011;25832;45.490;4.912;2023-06-22T04:40:48;21.80;;;10.65;;
40122;SDS011;25832;45.490;4.912;2023-06-22T04:43:14;26.20;;;9.77;;
40122;SDS011;25832;45.490;4.912;2023-06-22T04:45:40;18.00;;;11.18;;
40122;SDS011;25832;45.490;4.912;2023-06-22T04:48:06;20.65;;;10.48;;
40122;SDS011;25832;45.490;4.912;2023-06-22T04:50:33;18.75;;;11.05;;
40122;SDS011;25832;45.490;4.912;2023-06-22T04:52:59;22.42;;;10.05;;
40122;SDS011;25832;45.490;4.912;2023-06-22T04:55:24;26.35;;;11.95;;
40122;SDS011;25832;45.490;4.912;2023-06-22T04:57:50;25.00;;;11.80;;
40122;SDS011;25832;45.490;4.912;2023-06-22T05:00:20;17.75;;;10.32;;
40122;SDS011;25832;45.490;4.912;2023-06-22T05:02:48;19.33;;;10.43;;
40122;SDS011;25832;45.490;4.912;2023-06-22T05:05:14;20.15;;;10.73;;
40122;SDS011;25832;45.490;4.912;2023-06-22T05:07:43;20.98;;;10.80;;
40122;SDS011;25832;45.490;4.912;2023-06-22T05:10:13;32.58;;;11.88;;
40122;SDS011;25832;45.490;4.912;2023-06-22T05:12:39;16.02;;;10.10;;
40122;SDS011;25832;45.490;4.912;2023-06-22T05:15:07;20.85;;;12.13;;
40122;SDS011;25832;45.490;4.912;2023-06-22T05:17:33;24.45;;;10.93;;
40122;SDS011;25832;45.490;4.912;2023-06-22T05:19:59;24.00;;;11.82;;
40122;SDS011;25832;45.490;4.912;2023-06-22T05:22:26;27.95;;;13.13;;
40122;SDS011;25832;45.490;4.912;2023-06-22T05:24:51;21.77;;;12.18;;
40122;SDS011;25832;45.490;4.912;2023-06-22T05:27:17;22.45;;;11.25;;
40122;SDS011;25832;45.490;4.912;2023-06-22T05:29:43;35.85;;;15.45;;
40122;SDS011;25832;45.490;4.912;2023-06-22T05:32:08;41.38;;;13.13;;
40122;SDS011;25832;45.490;4.912;2023-06-22T05:34:34;28.52;;;12.05;;
40122;SDS011;25832;45.490;4.912;2023-06-22T05:37:00;21.40;;;10.82;;
40122;SDS011;25832;45.490;4.912;2023-06-22T05:39:26;23.33;;;10.70;;
40122;SDS011;25832;45.490;4.912;2023-06-22T05:41:52;23.30;;;11.50;;
40122;SDS011;25832;45.490;4.912;2023-06-22T05:44:18;25.90;;;12.90;;
40122;SDS011;25832;45.490;4.912;2023-06-22T05:46:44;23.05;;;13.52;;
40122;SDS011;25832;45.490;4.912;2023-06-22T05:49:12;23.77;;;13.02;;
40122;SDS011;25832;45.490;4.912;2023-06-22T05:51:38;24.77;;;13.68;;
40122;SDS011;25832;45.490;4.912;2023-06-22T05:54:04;28.15;;;13.70;;
40122;SDS011;25832;45.490;4.912;2023-06-22T05:56:30;21.92;;;14.90;;
40122;SDS011;25832;45.490;4.912;2023-06-22T05:58:56;20.20;;;12.68;;
40122;SDS011;25832;45.490;4.912;2023-06-22T06:01:21;26.08;;;14.13;;
40122;SDS011;25832;45.490;4.912;2023-06-22T06:03:47;18.25;;;12.40;;
40122;SDS011;25832;45.490;4.912;2023-06-22T06:06:15;27.00;;;13.15;;
40122;SDS011;25832;45.490;4.912;2023-06-22T06:08:41;24.42;;;13.38;;
40122;SDS011;25832;45.490;4.912;2023-06-22T06:11:07;15.40;;;12.30;;
40122;SDS011;25832;45.490;4.912;2023-06-22T06:13:32;21.83;;;12.02;;
40122;SDS011;25832;45.490;4.912;2023-06-22T06:15:58;24.30;;;13.23;;
40122;SDS011;25832;45.490;4.912;2023-06-22T06:18:24;22.15;;;12.73;;
40122;SDS011;25832;45.490;4.912;2023-06-22T06:20:50;26.42;;;11.90;;
40122;SDS011;25832;45.490;4.912;2023-06-22T06:23:16;18.38;;;11.43;;
40122;SDS011;25832;45.490;4.912;2023-06-22T06:25:41;23.88;;;11.05;;
40122;SDS011;25832;45.490;4.912;2023-06-22T06:28:07;24.55;;;13.68;;
40122;SDS011;25832;45.490;4.912;2023-06-22T06:30:33;22.65;;;11.70;;
40122;SDS011;25832;45.490;4.912;2023-06-22T06:32:59;24.67;;;11.80;;
40122;SDS011;25832;45.490;4.912;2023-06-22T06:35:25;19.98;;;12.65;;
40122;SDS011;25832;45.490;4.912;2023-06-22T06:37:51;26.98;;;14.07;;
40122;SDS011;25832;45.490;4.912;2023-06-22T06:40:17;22.55;;;13.77;;
40122;SDS011;25832;45.490;4.912;2023-06-22T06:42:44;29.10;;;14.48;;
40122;SDS011;25832;45.490;4.912;2023-06-22T06:45:11;22.40;;;13.15;;
40122;SDS011;25832;45.490;4.912;2023-06-22T06:47:38;21.52;;;12.80;;
40122;SDS011;25832;45.490;4.912;2023-06-22T06:50:05;29.20;;;14.77;;
40122;SDS011;25832;45.490;4.912;2023-06-22T06:52:31;16.98;;;13.82;;
40122;SDS011;25832;45.490;4.912;2023-06-22T06:54:57;30.42;;;14.75;;
40122;SDS011;25832;45.490;4.912;2023-06-22T06:57:23;26.27;;;14.00;;
40122;SDS011;25832;45.490;4.912;2023-06-22T06:59:54;23.42;;;15.13;;
40122;SDS011;25832;45.490;4.912;2023-06-22T07:02:21;29.80;;;16.00;;
40122;SDS011;25832;45.490;4.912;2023-06-22T07:04:47;24.88;;;16.02;;
40122;SDS011;25832;45.490;4.912;2023-06-22T07:07:13;31.80;;;15.25;;
40122;SDS011;25832;45.490;4.912;2023-06-22T07:09:39;23.88;;;13.93;;
40122;SDS011;25832;45.490;4.912;2023-06-22T07:12:05;25.15;;;14.75;;
40122;SDS011;25832;45.490;4.912;2023-06-22T07:14:31;20.60;;;12.90;;
40122;SDS011;25832;45.490;4.912;2023-06-22T07:16:57;23.75;;;13.48;;
40122;SDS011;25832;45.490;4.912;2023-06-22T07:19:27;24.83;;;12.52;;
40122;SDS011;25832;45.490;4.912;2023-06-22T07:21:53;23.45;;;12.63;;
40122;SDS011;25832;45.490;4.912;2023-06-22T07:24:20;24.23;;;11.90;;
40122;SDS011;25832;45.490;4.912;2023-06-22T07:26:47;27.98;;;13.40;;
40122;SDS011;25832;45.490;4.912;2023-06-22T07:29:14;23.90;;;12.63;;
40122;SDS011;25832;45.490;4.912;2023-06-22T07:31:46;20.63;;;12.27;;
40122;SDS011;25832;45.490;4.912;2023-06-22T07:34:12;23.73;;;14.43;;
40122;SDS011;25832;45.490;4.912;2023-06-22T07:36:38;17.42;;;12.70;;
40122;SDS011;25832;45.490;4.912;2023-06-22T07:39:04;20.73;;;12.40;;
40122;SDS011;25832;45.490;4.912;2023-06-22T07:41:30;22.83;;;12.18;;
40122;SDS011;25832;45.490;4.912;2023-06-22T07:43:56;28.17;;;12.10;;
40122;SDS011;25832;45.490;4.912;2023-06-22T07:46:22;26.95;;;11.02;;
40122;SDS011;25832;45.490;4.912;2023-06-22T07:48:48;18.27;;;9.93;;
40122;SDS011;25832;45.490;4.912;2023-06-22T07:51:14;25.63;;;10.82;;
40122;SDS011;25832;45.490;4.912;2023-06-22T07:53:43;23.48;;;11.73;;
40122;SDS011;25832;45.490;4.912;2023-06-22T07:56:13;17.23;;;10.60;;
40122;SDS011;25832;45.490;4.912;2023-06-22T07:58:43;18.13;;;11.35;;
40122;SDS011;25832;45.490;4.912;2023-06-22T08:01:09;19.88;;;9.80;;
40122;SDS011;25832;45.490;4.912;2023-06-22T08:03:36;17.33;;;9.93;;
40122;SDS011;25832;45.490;4.912;2023-06-22T08:06:01;18.15;;;9.02;;
40122;SDS011;25832;45.490;4.912;2023-06-22T08:08:27;21.33;;;8.95;;
40122;SDS011;25832;45.490;4.912;2023-06-22T08:10:53;17.83;;;9.43;;
40122;SDS011;25832;45.490;4.912;2023-06-22T08:13:19;24.88;;;10.45;;
40122;SDS011;25832;45.490;4.912;2023-06-22T08:15:45;18.58;;;9.80;;
40122;SDS011;25832;45.490;4.912;2023-06-22T08:18:10;16.00;;;8.70;;
40122;SDS011;25832;45.490;4.912;2023-06-22T08:20:36;17.98;;;9.70;;
40122;SDS011;25832;45.490;4.912;2023-06-22T08:23:02;16.98;;;8.35;;
40122;SDS011;25832;45.490;4.912;2023-06-22T08:25:33;17.20;;;8.75;;
40122;SDS011;25832;45.490;4.912;2023-06-22T08:28:00;17.27;;;9.32;;
40122;SDS011;25832;45.490;4.912;2023-06-22T08:30:27;14.32;;;8.32;;
40122;SDS011;25832;45.490;4.912;2023-06-22T08:32:53;12.73;;;7.50;;
40122;SDS011;25832;45.490;4.912;2023-06-22T08:35:20;13.73;;;7.70;;
40122;SDS011;25832;45.490;4.912;2023-06-22T08:37:49;18.95;;;8.13;;
40122;SDS011;25832;45.490;4.912;2023-06-22T08:40:20;15.38;;;7.45;;
40122;SDS011;25832;45.490;4.912;2023-06-22T08:42:46;20.98;;;8.40;;
40122;SDS011;25832;45.490;4.912;2023-06-22T08:45:13;17.63;;;7.53;;
40122;SDS011;25832;45.490;4.912;2023-06-22T08:47:39;19.73;;;8.48;;
40122;SDS011;25832;45.490;4.912;2023-06-22T08:50:08;14.23;;;7.75;;
40122;SDS011;25832;45.490;4.912;2023-06-22T08:52:35;14.90;;;7.57;;
40122;SDS011;25832;45.490;4.912;2023-06-22T08:55:01;14.30;;;8.20;;
40122;SDS011;25832;45.490;4.912;2023-06-22T08:57:28;13.73;;;7.75;;
40122;SDS011;25832;45.490;4.912;2023-06-22T08:59:55;16.52;;;7.70;;
40122;SDS011;25832;45.490;4.912;2023-06-22T09:02:24;12.85;;;7.32;;
40122;SDS011;25832;45.490;4.912;2023-06-22T09:04:55;16.70;;;6.93;;
40122;SDS011;25832;45.490;4.912;2023-06-22T09:07:24;11.23;;;6.37;;
40122;SDS011;25832;45.490;4.912;2023-06-22T09:09:51;16.58;;;7.28;;
40122;SDS011;25832;45.490;4.912;2023-06-22T09:12:17;16.77;;;7.50;;
40122;SDS011;25832;45.490;4.912;2023-06-22T09:14:45;17.08;;;8.07;;
40122;SDS011;25832;45.490;4.912;2023-06-22T09:17:12;20.90;;;8.40;;
40122;SDS011;25832;45.490;4.912;2023-06-22T09:19:38;14.18;;;7.05;;
40122;SDS011;25832;45.490;4.912;2023-06-22T09:22:03;18.65;;;8.10;;
40122;SDS011;25832;45.490;4.912;2023-06-22T09:24:31;13.65;;;7.05;;
40122;SDS011;25832;45.490;4.912;2023-06-22T09:26:57;13.82;;;6.97;;
40122;SDS011;25832;45.490;4.912;2023-06-22T09:29:23;15.43;;;7.50;;
40122;SDS011;25832;45.490;4.912;2023-06-22T09:31:49;17.20;;;7.93;;
40122;SDS011;25832;45.490;4.912;2023-06-22T09:34:14;15.38;;;7.90;;
40122;SDS011;25832;45.490;4.912;2023-06-22T09:36:41;22.60;;;8.02;;
40122;SDS011;25832;45.490;4.912;2023-06-22T09:39:06;18.08;;;7.72;;
40122;SDS011;25832;45.490;4.912;2023-06-22T09:41:32;12.35;;;6.90;;
40122;SDS011;25832;45.490;4.912;2023-06-22T09:43:58;13.88;;;7.32;;
40122;SDS011;25832;45.490;4.912;2023-06-22T09:46:23;14.43;;;7.13;;
40122;SDS011;25832;45.490;4.912;2023-06-22T09:48:53;15.52;;;7.93;;
40122;SDS011;25832;45.490;4.912;2023-06-22T09:51:18;13.98;;;7.25;;
40122;SDS011;25832;45.490;4.912;2023-06-22T09:53:46;21.52;;;7.63;;
40122;SDS011;25832;45.490;4.912;2023-06-22T09:56:12;21.58;;;8.07;;
40122;SDS011;25832;45.490;4.912;2023-06-22T09:58:40;22.88;;;7.90;;
40122;SDS011;25832;45.490;4.912;2023-06-22T10:01:10;16.30;;;7.93;;
40122;SDS011;25832;45.490;4.912;2023-06-22T10:03:36;15.90;;;7.60;;
40122;SDS011;25832;45.490;4.912;2023-06-22T10:06:02;15.25;;;8.05;;
40122;SDS011;25832;45.490;4.912;2023-06-22T10:08:28;15.55;;;8.02;;
40122;SDS011;25832;45.490;4.912;2023-06-22T10:10:53;11.40;;;7.32;;
40122;SDS011;25832;45.490;4.912;2023-06-22T10:13:19;15.52;;;8.18;;
40122;SDS011;25832;45.490;4.912;2023-06-22T10:15:45;19.55;;;9.05;;
40122;SDS011;25832;45.490;4.912;2023-06-22T10:18:16;18.00;;;8.52;;
40122;SDS011;25832;45.490;4.912;2023-06-22T10:20:42;16.38;;;7.90;;
40122;SDS011;25832;45.490;4.912;2023-06-22T10:23:08;17.42;;;8.10;;
40122;SDS011;25832;45.490;4.912;2023-06-22T10:25:34;18.15;;;8.30;;
40122;SDS011;25832;45.490;4.912;2023-06-22T10:28:00;16.75;;;8.73;;
40122;SDS011;25832;45.490;4.912;2023-06-22T10:30:25;21.90;;;9.02;;
40122;SDS011;25832;45.490;4.912;2023-06-22T10:32:51;15.30;;;7.32;;
40122;SDS011;25832;45.490;4.912;2023-06-22T10:35:17;14.43;;;7.60;;
40122;SDS011;25832;45.490;4.912;2023-06-22T10:37:43;19.45;;;7.95;;
40122;SDS011;25832;45.490;4.912;2023-06-22T10:40:10;14.80;;;7.80;;
40122;SDS011;25832;45.490;4.912;2023-06-22T10:42:37;16.20;;;8.18;;
40122;SDS011;25832;45.490;4.912;2023-06-22T10:45:03;15.40;;;7.90;;
40122;SDS011;25832;45.490;4.912;2023-06-22T10:47:29;19.23;;;7.75;;
40122;SDS011;25832;45.490;4.912;2023-06-22T10:49:55;18.52;;;7.82;;
40122;SDS011;25832;45.490;4.912;2023-06-22T10:52:21;14.55;;;7.03;;
40122;SDS011;25832;45.490;4.912;2023-06-22T10:54:46;19.30;;;7.72;;
40122;SDS011;25832;45.490;4.912;2023-06-22T10:57:12;19.73;;;7.68;;
40122;SDS011;25832;45.490;4.912;2023-06-22T10:59:38;22.42;;;7.80;;
40122;SDS011;25832;45.490;4.912;2023-06-22T11:02:04;17.13;;;7.07;;
40122;SDS011;25832;45.490;4.912;2023-06-22T11:04:30;19.60;;;6.47;;
40122;SDS011;25832;45.490;4.912;2023-06-22T11:06:55;12.57;;;5.78;;
40122;SDS011;25832;45.490;4.912;2023-06-22T11:09:21;13.65;;;6.13;;
40122;SDS011;25832;45.490;4.912;2023-06-22T11:11:47;16.10;;;5.63;;
40122;SDS011;25832;45.490;4.912;2023-06-22T11:14:14;10.50;;;4.07;;
40122;SDS011;25832;45.490;4.912;2023-06-22T11:16:39;11.15;;;4.53;;
40122;SDS011;25832;45.490;4.912;2023-06-22T11:19:05;11.23;;;4.57;;
40122;SDS011;25832;45.490;4.912;2023-06-22T11:21:31;15.30;;;4.70;;
40122;SDS011;25832;45.490;4.912;2023-06-22T11:23:57;7.22;;;3.67;;
40122;SDS011;25832;45.490;4.912;2023-06-22T11:26:24;9.98;;;4.88;;
40122;SDS011;25832;45.490;4.912;2023-06-22T11:28:52;11.57;;;3.60;;
40122;SDS011;25832;45.490;4.912;2023-06-22T11:31:18;19.05;;;4.50;;
40122;SDS011;25832;45.490;4.912;2023-06-22T11:33:44;12.77;;;4.38;;
40122;SDS011;25832;45.490;4.912;2023-06-22T11:36:11;6.47;;;3.33;;
40122;SDS011;25832;45.490;4.912;2023-06-22T11:38:37;9.27;;;4.30;;
40122;SDS011;25832;45.490;4.912;2023-06-22T11:41:05;9.90;;;3.65;;
40122;SDS011;25832;45.490;4.912;2023-06-22T11:43:31;8.60;;;3.55;;
40122;SDS011;25832;45.490;4.912;2023-06-22T11:45:56;7.60;;;2.97;;
40122;SDS011;25832;45.490;4.912;2023-06-22T11:48:23;11.48;;;4.05;;
40122;SDS011;25832;45.490;4.912;2023-06-22T11:50:49;8.18;;;3.45;;
40122;SDS011;25832;45.490;4.912;2023-06-22T11:53:15;17.60;;;4.57;;
40122;SDS011;25832;45.490;4.912;2023-06-22T11:55:44;8.95;;;3.92;;
40122;SDS011;25832;45.490;4.912;2023-06-22T11:58:10;9.68;;;3.60;;
40122;SDS011;25832;45.490;4.912;2023-06-22T12:00:36;9.48;;;3.83;;
40122;SDS011;25832;45.490;4.912;2023-06-22T12:03:02;10.05;;;4.35;;
40122;SDS011;25832;45.490;4.912;2023-06-22T12:05:28;12.10;;;4.35;;
40122;SDS011;25832;45.490;4.912;2023-06-22T12:07:54;9.15;;;3.25;;
40122;SDS011;25832;45.490;4.912;2023-06-22T12:10:20;6.38;;;4.05;;
40122;SDS011;25832;45.490;4.912;2023-06-22T12:12:47;7.85;;;3.67;;
40122;SDS011;25832;45.490;4.912;2023-06-22T12:15:13;8.98;;;3.45;;
40122;SDS011;25832;45.490;4.912;2023-06-22T12:17:39;7.03;;;3.22;;
40122;SDS011;25832;45.490;4.912;2023-06-22T12:20:06;7.13;;;3.65;;
40122;SDS011;25832;45.490;4.912;2023-06-22T12:22:32;10.13;;;4.10;;
40122;SDS011;25832;45.490;4.912;2023-06-22T12:24:58;6.80;;;3.70;;
40122;SDS011;25832;45.490;4.912;2023-06-22T12:27:24;9.57;;;4.38;;
40122;SDS011;25832;45.490;4.912;2023-06-22T12:29:50;19.23;;;11.57;;
40122;SDS011;25832;45.490;4.912;2023-06-22T12:32:16;17.23;;;4.72;;
40122;SDS011;25832;45.490;4.912;2023-06-22T12:34:42;13.55;;;6.25;;
40122;SDS011;25832;45.490;4.912;2023-06-22T12:37:08;9.32;;;4.03;;
40122;SDS011;25832;45.490;4.912;2023-06-22T12:39:34;9.40;;;4.15;;
40122;SDS011;25832;45.490;4.912;2023-06-22T12:42:00;13.70;;;4.85;;
40122;SDS011;25832;45.490;4.912;2023-06-22T12:44:26;15.27;;;4.68;;
40122;SDS011;25832;45.490;4.912;2023-06-22T12:46:52;9.18;;;4.68;;
40122;SDS011;25832;45.490;4.912;2023-06-22T12:49:18;10.63;;;4.57;;
40122;SDS011;25832;45.490;4.912;2023-06-22T12:51:43;10.02;;;4.38;;
40122;SDS011;25832;45.490;4.912;2023-06-22T12:54:10;10.20;;;4.78;;
40122;SDS011;25832;45.490;4.912;2023-06-22T12:56:37;13.57;;;5.47;;
40122;SDS011;25832;45.490;4.912;2023-06-22T12:59:03;16.40;;;4.90;;
40122;SDS011;25832;45.490;4.912;2023-06-22T13:01:30;10.13;;;4.75;;
40122;SDS011;25832;45.490;4.912;2023-06-22T13:03:56;13.70;;;5.55;;
40122;SDS011;25832;45.490;4.912;2023-06-22T13:06:26;13.10;;;4.70;;
40122;SDS011;25832;45.490;4.912;2023-06-22T13:08:51;12.88;;;4.10;;
40122;SDS011;25832;45.490;4.912;2023-06-22T13:11:17;10.00;;;4.25;;
40122;SDS011;25832;45.490;4.912;2023-06-22T13:13:44;14.40;;;5.22;;
40122;SDS011;25832;45.490;4.912;2023-06-22T13:16:11;12.73;;;4.55;;
40122;SDS011;25832;45.490;4.912;2023-06-22T13:18:36;11.88;;;4.88;;
40122;SDS011;25832;45.490;4.912;2023-06-22T13:21:03;9.02;;;4.75;;
40122;SDS011;25832;45.490;4.912;2023-06-22T13:23:29;10.13;;;4.15;;
40122;SDS011;25832;45.490;4.912;2023-06-22T13:25:55;7.40;;;3.30;;
40122;SDS011;25832;45.490;4.912;2023-06-22T13:28:21;9.27;;;3.88;;
40122;SDS011;25832;45.490;4.912;2023-06-22T13:30:47;7.55;;;4.07;;
40122;SDS011;25832;45.490;4.912;2023-06-22T13:33:13;11.35;;;5.40;;
40122;SDS011;25832;45.490;4.912;2023-06-22T13:35:39;11.88;;;4.03;;
40122;SDS011;25832;45.490;4.912;2023-06-22T13:38:07;9.63;;;4.07;;
40122;SDS011;25832;45.490;4.912;2023-06-22T13:40:34;10.52;;;4.40;;
40122;SDS011;25832;45.490;4.912;2023-06-22T13:43:00;5.15;;;3.25;;
40122;SDS011;25832;45.490;4.912;2023-06-22T13:45:26;6.32;;;3.00;;
40122;SDS011;25832;45.490;4.912;2023-06-22T13:47:51;8.38;;;3.05;;
40122;SDS011;25832;45.490;4.912;2023-06-22T13:50:17;6.18;;;2.25;;
40122;SDS011;25832;45.490;4.912;2023-06-22T13:52:43;4.97;;;2.22;;
40122;SDS011;25832;45.490;4.912;2023-06-22T13:55:09;5.10;;;2.63;;
40122;SDS011;25832;45.490;4.912;2023-06-22T13:57:35;9.10;;;2.53;;
40122;SDS011;25832;45.490;4.912;2023-06-22T14:00:01;4.30;;;2.10;;
40122;SDS011;25832;45.490;4.912;2023-06-22T14:02:29;4.53;;;2.05;;
40122;SDS011;25832;45.490;4.912;2023-06-22T14:04:54;6.13;;;2.03;;
40122;SDS011;25832;45.490;4.912;2023-06-22T14:07:20;4.28;;;2.25;;
40122;SDS011;25832;45.490;4.912;2023-06-22T14:09:46;4.18;;;2.05;;
40122;SDS011;25832;45.490;4.912;2023-06-22T14:12:12;3.50;;;1.77;;
40122;SDS011;25832;45.490;4.912;2023-06-22T14:14:38;7.05;;;2.08;;
40122;SDS011;25832;45.490;4.912;2023-06-22T14:17:04;6.43;;;2.28;;
40122;SDS011;25832;45.490;4.912;2023-06-22T14:19:30;7.57;;;2.40;;
40122;SDS011;25832;45.490;4.912;2023-06-22T14:21:56;3.38;;;2.05;;
40122;SDS011;25832;45.490;4.912;2023-06-22T14:24:22;3.08;;;2.08;;
40122;SDS011;25832;45.490;4.912;2023-06-22T14:26:48;5.40;;;2.45;;
40122;SDS011;25832;45.490;4.912;2023-06-22T14:29:17;5.05;;;2.58;;
40122;SDS011;25832;45.490;4.912;2023-06-22T14:31:45;4.30;;;2.30;;
40122;SDS011;25832;45.490;4.912;2023-06-22T14:34:11;3.78;;;2.13;;
40122;SDS011;25832;45.490;4.912;2023-06-22T14:36:38;8.40;;;2.72;;
40122;SDS011;25832;45.490;4.912;2023-06-22T14:39:03;9.15;;;3.20;;